createdAt,value
2023-04-24T00:00:10.119Z,191.40
2023-04-24T00:04:15.433Z,191.70
2023-04-24T00:08:18.594Z,193.23
2023-04-24T00:12:22.978Z,194.15
2023-04-24T00:16:26.086Z,193.20
2023-04-24T00:20:30.456Z,193.05
2023-04-24T00:24:33.462Z,193.70
2023-04-24T00:28:37.825Z,192.60
2023-04-24T00:32:40.941Z,192.65
2023-04-24T00:36:43.947Z,194.20
2023-04-24T00:40:48.512Z,192.57
2023-04-24T00:44:53.548Z,192.90
2023-04-24T00:48:58.157Z,193.60
2023-04-24T00:53:01.320Z,193.70
2023-04-24T00:57:05.785Z,193.40
2023-04-24T01:01:12.699Z,200.10
2023-04-24T01:05:18.343Z,195.80
2023-04-24T01:09:23.584Z,195.00
2023-04-24T01:13:26.658Z,195.15
2023-04-24T01:17:31.037Z,195.30
2023-04-24T01:21:37.689Z,194.53
2023-04-24T01:25:42.189Z,194.60
2023-04-24T01:29:45.382Z,192.20
2023-04-24T01:33:49.557Z,193.90
2023-04-24T01:37:52.541Z,194.70
2023-04-24T01:41:57.319Z,195.45
2023-04-24T01:46:00.359Z,192.50
2023-04-24T01:50:03.383Z,194.20
2023-04-24T01:54:07.450Z,195.73
2023-04-24T01:58:11.889Z,194.60
2023-04-24T02:02:16.717Z,195.35
2023-04-24T02:06:19.723Z,194.90
2023-04-24T02:10:22.972Z,195.70
2023-04-24T02:14:27.395Z,194.75
2023-04-24T02:18:30.360Z,195.20
2023-04-24T02:22:33.388Z,195.17
2023-04-24T02:26:36.373Z,194.50
2023-04-24T02:30:40.720Z,195.05
2023-04-24T02:34:43.801Z,195.50
2023-04-24T02:38:46.776Z,195.73
2023-04-24T02:42:49.746Z,193.70
2023-04-24T02:46:54.090Z,195.60
2023-04-24T02:50:57.083Z,196.10
2023-04-24T02:55:00.135Z,196.83
2023-04-24T02:59:03.159Z,196.73
2023-04-24T03:03:08.115Z,195.80
2023-04-24T03:19:21.179Z,197.10
2023-04-24T03:27:26.992Z,198.47
2023-04-24T10:22:25.315Z,215.60
2023-04-24T10:26:29.623Z,216.70
2023-04-24T10:30:36.188Z,214.93
2023-04-24T10:34:39.310Z,214.38
2023-04-24T10:38:48.698Z,208.90
2023-04-24T10:42:56.856Z,195.27
2023-04-24T10:47:01.334Z,191.80
2023-04-24T10:51:04.425Z,191.60
2023-04-24T10:55:09.758Z,192.27
2023-04-24T10:59:12.723Z,192.65
2023-04-24T11:03:28.834Z,191.90
2023-04-24T11:07:32.095Z,193.00
2023-04-24T11:11:38.163Z,191.70
2023-04-24T11:15:44.657Z,193.00
2023-04-24T11:19:54.585Z,192.73
2023-04-24T11:23:58.801Z,193.03
2023-04-24T11:28:09.120Z,190.90
2023-04-24T11:32:20.874Z,190.17
2023-04-24T11:36:24.036Z,191.83
2023-04-24T11:40:28.124Z,192.68
2023-04-24T11:44:33.488Z,192.80
2023-04-24T11:48:41.053Z,192.85
2023-04-24T11:52:45.275Z,192.73
2023-04-24T11:56:48.788Z,193.07
2023-04-24T12:01:00.519Z,194.35
2023-04-24T12:05:03.732Z,193.57
2023-04-24T12:09:17.969Z,193.23
2023-04-24T12:13:21.628Z,190.83
2023-04-24T12:17:31.397Z,194.03
2023-04-24T12:21:34.410Z,200.05
2023-04-24T12:25:37.673Z,193.00
2023-04-24T12:29:54.488Z,193.30
2023-04-24T12:33:58.839Z,193.40
2023-04-24T12:38:09.053Z,195.50
2023-04-24T12:42:12.139Z,193.47
2023-04-24T12:46:17.634Z,195.10
2023-04-24T12:50:22.723Z,205.40
2023-04-24T12:54:25.881Z,196.40
2023-04-24T12:58:28.887Z,194.65
2023-04-24T13:02:32.610Z,198.30
2023-04-24T13:06:37.467Z,195.20
2023-04-24T13:10:40.725Z,197.10
2023-04-24T13:14:44.002Z,198.10
2023-04-24T13:18:47.001Z,198.52
2023-04-24T13:22:51.340Z,198.20
2023-04-24T13:26:57.582Z,199.23
2023-04-24T13:31:01.067Z,198.60
2023-04-24T13:35:04.458Z,198.90
2023-04-24T13:39:08.862Z,198.90
2023-04-24T13:43:11.875Z,199.50
2023-04-24T13:47:14.869Z,198.45
2023-04-24T13:51:17.862Z,199.25
2023-04-24T13:55:22.254Z,199.10
2023-04-24T13:59:26.037Z,197.20
2023-04-24T14:03:29.189Z,199.80
2023-04-24T14:07:32.952Z,198.85
2023-04-24T14:11:37.744Z,198.50
2023-04-24T14:15:40.856Z,198.85
2023-04-24T14:19:43.863Z,198.40
2023-04-24T14:23:47.141Z,199.60
2023-04-24T14:27:51.644Z,198.40
2023-04-24T14:31:54.696Z,199.20
2023-04-24T14:35:57.724Z,198.20
2023-04-24T14:40:19.631Z,198.10
2023-04-24T14:44:25.091Z,196.00
2023-04-24T14:48:28.083Z,199.10
2023-04-24T14:52:31.087Z,196.60
2023-04-24T14:56:34.116Z,198.33
2023-04-24T15:00:38.828Z,197.65
2023-04-24T15:04:42.456Z,199.60
2023-04-24T15:08:47.407Z,200.37
2023-04-24T15:12:51.824Z,199.30
2023-04-24T15:16:56.160Z,201.10
2023-04-24T15:20:59.247Z,202.30
2023-04-24T15:25:02.233Z,200.80
2023-04-24T15:29:05.365Z,199.80
2023-04-24T15:33:10.277Z,199.97
2023-04-24T15:37:13.875Z,197.00
2023-04-24T15:41:16.842Z,201.60
2023-04-24T15:45:20.025Z,201.70
2023-04-24T15:49:24.389Z,202.80
2023-04-24T15:53:28.427Z,203.85
2023-04-24T15:57:31.431Z,203.10
2023-04-24T16:01:34.957Z,199.70
2023-04-24T16:05:40.094Z,202.13
2023-04-24T16:09:43.336Z,202.43
2023-04-24T16:13:46.356Z,203.30
2023-04-24T16:17:50.757Z,202.30
2023-04-24T16:21:56.271Z,204.13
2023-04-24T16:25:59.281Z,204.10
2023-04-24T16:30:02.423Z,203.80
2023-04-24T16:34:05.480Z,203.10
2023-04-24T16:38:10.237Z,203.03
2023-04-24T16:42:14.242Z,199.70
2023-04-24T16:46:17.464Z,203.40
2023-04-24T16:50:20.648Z,203.40
2023-04-24T16:54:25.100Z,203.98
2023-04-24T16:58:28.089Z,203.25
2023-04-24T17:02:32.256Z,205.17
2023-04-24T17:06:35.384Z,206.13
2023-04-24T17:10:41.184Z,203.13
2023-04-24T17:14:44.189Z,204.65
2023-04-24T17:18:47.331Z,203.15
2023-04-24T17:22:50.512Z,205.40
2023-04-24T17:26:58.901Z,204.10
2023-04-24T17:31:05.014Z,205.10
2023-04-24T17:35:09.186Z,204.43
2023-04-24T17:39:12.579Z,204.63
2023-04-24T17:43:18.217Z,205.20
2023-04-24T17:47:22.458Z,206.77
2023-04-24T17:51:26.078Z,201.70
2023-04-24T17:55:30.042Z,204.97
2023-04-24T17:59:36.174Z,202.15
2023-04-24T18:03:44.035Z,206.10
2023-04-24T18:07:47.863Z,205.30
2023-04-24T18:11:50.899Z,209.65
2023-04-24T18:15:55.325Z,207.90
2023-04-24T18:19:58.329Z,221.35
2023-04-24T18:24:01.307Z,220.00
2023-04-24T18:28:06.403Z,217.90
2023-04-24T18:32:10.750Z,227.20
2023-04-24T18:36:13.954Z,227.70
2023-04-24T18:40:17.849Z,227.90
2023-04-24T18:44:21.264Z,228.40
2023-04-24T18:48:25.645Z,229.60
2023-04-24T18:52:28.796Z,228.00
2023-04-24T18:56:31.746Z,225.65
2023-04-24T19:00:34.791Z,211.00
2023-04-24T19:04:39.181Z,206.70
2023-04-24T19:08:43.191Z,209.60
2023-04-24T19:12:46.744Z,210.40
2023-04-24T19:16:50.105Z,211.23
2023-04-24T19:20:54.626Z,210.07
2023-04-24T19:24:58.485Z,206.40
2023-04-24T19:29:01.488Z,209.30
2023-04-24T19:33:04.605Z,209.80
2023-04-24T19:37:09.141Z,209.80
2023-04-24T19:41:12.370Z,209.45
2023-04-24T19:45:15.604Z,208.20
2023-04-24T19:49:18.602Z,206.40
2023-04-24T19:53:22.939Z,208.07
2023-04-24T19:57:25.874Z,204.63
2023-04-24T20:01:28.935Z,205.70
2023-04-24T20:05:32.063Z,229.40
2023-04-24T20:09:36.473Z,229.70
2023-04-24T20:13:40.086Z,227.70
2023-04-24T20:17:43.112Z,226.70
2023-04-24T20:21:47.150Z,226.55
2023-04-24T20:25:57.906Z,228.40
2023-04-24T20:30:02.284Z,226.80
2023-04-24T20:34:06.657Z,226.63
2023-04-24T20:38:11.018Z,224.45
2023-04-24T20:42:16.636Z,225.70
2023-04-24T20:46:19.627Z,226.65
2023-04-24T20:50:22.710Z,226.37
2023-04-24T20:54:26.528Z,226.25
2023-04-24T20:58:31.252Z,224.30
2023-04-24T21:02:34.355Z,222.25
2023-04-24T21:06:37.570Z,220.95
2023-04-24T21:10:40.577Z,212.10
2023-04-24T21:14:44.930Z,209.90
2023-04-24T21:18:48.040Z,210.13
2023-04-24T21:22:51.058Z,208.15
2023-04-24T21:26:54.100Z,211.47
2023-04-24T21:30:58.480Z,211.40
2023-04-24T21:35:01.509Z,210.20
2023-04-24T21:39:04.572Z,211.50
2023-04-24T21:43:07.585Z,210.50
2023-04-24T21:47:11.961Z,209.00
2023-04-24T21:51:16.584Z,208.60
2023-04-24T21:55:21.251Z,209.70
2023-04-24T21:59:24.466Z,209.70
2023-04-24T22:03:29.687Z,210.40
2023-04-24T22:07:36.498Z,212.63
2023-04-24T22:11:39.596Z,209.60
2023-04-24T22:15:42.589Z,211.95
2023-04-24T22:19:46.951Z,211.45
2023-04-24T22:23:50.251Z,212.85
2023-04-24T22:27:53.530Z,210.83
2023-04-24T22:31:57.812Z,212.30
2023-04-24T22:36:02.724Z,212.40
2023-04-24T22:40:08.711Z,211.30
2023-04-24T22:44:12.124Z,210.80
2023-04-24T22:48:15.112Z,207.90
2023-04-24T22:52:19.443Z,210.97
2023-04-24T22:56:22.443Z,210.60
2023-04-24T23:00:25.588Z,210.93
2023-04-24T23:04:29.206Z,211.07
2023-04-24T23:08:33.713Z,210.30
2023-04-24T23:12:36.844Z,212.85
2023-04-24T23:16:41.105Z,212.00
2023-04-24T23:20:44.316Z,213.20
2023-04-24T23:24:48.711Z,210.93
2023-04-24T23:28:51.708Z,210.30
2023-04-24T23:32:54.872Z,213.43
2023-04-24T23:36:57.864Z,212.90
2023-04-24T23:41:02.443Z,212.70
2023-04-24T23:45:06.208Z,209.90
2023-04-24T23:49:09.711Z,213.05
2023-04-24T23:57:16.957Z,210.90
